Time;durP1;ratioP1;P1;durP2;ratioP2;P2;SDS_P1;SDS_P2;PMS_P1;PMS_P2;Temp;Humidity;BMP_temperature;BMP_pressure;BME280_temperature;BME280_humidity;BME280_pressure;Samples;Min_cycle;Max_cycle;Signal;HPM_P1;HPM_P2
2021/01/29 00:01:19;;;;;;;16.75;7.68;;;8.70;86.00;;;;;;4877169;29;20047;-90
2021/01/29 00:03:45;;;;;;;11.82;6.32;;;8.70;85.90;;;;;;4893645;29;20027;-91
2021/01/29 00:06:11;;;;;;;14.23;6.10;;;8.70;85.80;;;;;;4893043;29;20047;-89
2021/01/29 00:08:37;;;;;;;11.98;4.82;;;8.70;85.60;;;;;;4890955;29;20104;-90
2021/01/29 00:11:04;;;;;;;13.35;5.55;;;8.80;85.50;;;;;;4893863;24;20053;-90
2021/01/29 00:13:29;;;;;;;14.13;5.63;;;8.80;85.40;;;;;;4888411;29;20056;-90
2021/01/29 00:15:55;;;;;;;8.82;5.13;;;8.80;85.50;;;;;;4890269;29;20076;-90
2021/01/29 00:18:21;;;;;;;10.95;5.10;;;8.90;85.60;;;;;;4878874;29;20021;-91
2021/01/29 00:20:47;;;;;;;9.00;4.55;;;8.90;85.50;;;;;;4873157;29;20049;-90
2021/01/29 00:23:15;;;;;;;8.90;4.68;;;8.90;86.00;;;;;;4888070;29;20028;-91
2021/01/29 00:25:46;;;;;;;9.18;4.72;;;8.90;85.40;;;;;;4879536;29;20021;-91
2021/01/29 00:28:13;;;;;;;13.32;5.10;;;8.90;85.40;;;;;;4886486;29;20032;-89
2021/01/29 00:30:39;;;;;;;10.60;4.93;;;9.00;85.30;;;;;;4874055;29;20029;-91
2021/01/29 00:33:07;;;;;;;10.55;4.45;;;9.00;85.40;;;;;;4886416;29;20052;-91
2021/01/29 00:35:35;;;;;;;10.27;4.50;;;9.00;85.30;;;;;;4888051;29;20108;-91
2021/01/29 00:38:02;;;;;;;9.90;5.10;;;9.00;85.40;;;;;;4887398;29;20033;-90
2021/01/29 00:40:28;;;;;;;12.40;4.72;;;9.00;85.40;;;;;;4871487;29;20376;-91
2021/01/29 00:42:53;;;;;;;8.68;4.60;;;9.10;85.50;;;;;;4887155;29;20033;-91
2021/01/29 00:45:23;;;;;;;13.93;5.43;;;9.10;85.40;;;;;;4886764;29;20539;-91
2021/01/29 00:47:49;;;;;;;10.02;5.13;;;9.10;85.30;;;;;;4877016;29;20025;-91
2021/01/29 00:50:15;;;;;;;10.35;4.80;;;9.10;85.30;;;;;;4877608;29;20032;-90
2021/01/29 00:52:41;;;;;;;15.35;5.78;;;9.20;85.40;;;;;;4877391;29;20471;-91
2021/01/29 00:55:08;;;;;;;12.98;5.57;;;9.20;85.40;;;;;;4877055;29;20033;-90
2021/01/29 00:57:33;;;;;;;16.10;5.45;;;9.20;85.50;;;;;;4876432;29;20033;-91
2021/01/29 00:59:59;;;;;;;10.30;4.95;;;9.20;85.70;;;;;;4876525;29;20031;-91
2021/01/29 01:02:25;;;;;;;13.10;5.28;;;9.30;85.80;;;;;;4876300;29;20116;-93
2021/01/29 01:04:50;;;;;;;13.02;5.10;;;9.30;85.70;;;;;;4861361;29;20045;-92
2021/01/29 01:07:16;;;;;;;18.25;5.85;;;9.30;86.50;;;;;;4876132;29;20040;-91
2021/01/29 01:09:44;;;;;;;14.75;5.85;;;9.40;86.10;;;;;;4876444;29;20109;-91
2021/01/29 01:12:09;;;;;;;11.02;5.25;;;9.40;86.20;;;;;;4877747;29;20081;-92
2021/01/29 01:14:35;;;;;;;12.52;5.43;;;9.40;86.10;;;;;;4878142;29;20033;-91
2021/01/29 01:17:01;;;;;;;13.52;5.35;;;9.40;86.10;;;;;;4862333;29;20033;-91
2021/01/29 01:19:27;;;;;;;12.95;4.75;;;9.40;86.10;;;;;;4877213;29;20538;-91
2021/01/29 01:21:52;;;;;;;12.73;5.50;;;9.50;86.10;;;;;;4865001;29;20469;-91
2021/01/29 01:24:18;;;;;;;11.70;4.93;;;9.50;86.10;;;;;;4881075;29;20121;-90
2021/01/29 01:26:44;;;;;;;13.98;5.13;;;9.50;86.10;;;;;;4896403;29;20036;-91
2021/01/29 01:29:09;;;;;;;14.18;5.03;;;9.50;86.00;;;;;;4896450;29;20036;-90
2021/01/29 01:31:35;;;;;;;13.88;4.60;;;9.50;86.00;;;;;;4896532;29;20479;-91
2021/01/29 01:34:01;;;;;;;12.05;5.03;;;9.60;86.20;;;;;;4880893;29;20387;-90
2021/01/29 01:36:26;;;;;;;11.07;4.65;;;9.50;86.10;;;;;;4895920;29;20433;-91
2021/01/29 01:38:52;;;;;;;10.65;5.20;;;9.60;86.20;;;;;;4862034;29;20041;-93
2021/01/29 01:41:18;;;;;;;12.65;4.90;;;9.60;86.30;;;;;;4893820;29;20037;-91
2021/01/29 01:43:44;;;;;;;10.60;4.60;;;9.60;86.30;;;;;;4896550;29;20037;-92
2021/01/29 01:46:16;;;;;;;15.45;5.47;;;9.60;86.30;;;;;;4896408;29;20120;-92
2021/01/29 01:49:07;;;;;;;10.30;4.68;;;9.70;86.50;;;;;;4896459;29;20498;-92
2021/01/29 01:51:43;;;;;;;11.05;4.38;;;9.70;86.50;;;;;;4896629;29;20020;-91
2021/01/29 01:54:29;;;;;;;11.60;4.63;;;9.70;86.50;;;;;;4896379;29;20112;-90
2021/01/29 01:56:58;;;;;;;11.15;4.53;;;9.70;86.40;;;;;;4896453;29;20032;-92
2021/01/29 01:59:30;;;;;;;11.95;4.82;;;9.70;86.40;;;;;;4896368;29;20033;-91
2021/01/29 02:01:56;;;;;;;8.63;4.32;;;9.70;86.30;;;;;;4881021;29;20076;-91
2021/01/29 02:04:26;;;;;;;12.52;6.10;;;9.80;86.40;;;;;;4877420;29;20029;-92
2021/01/29 02:07:12;;;;;;;10.57;5.47;;;9.80;86.70;;;;;;4878307;29;20116;-91
2021/01/29 02:09:42;;;;;;;14.57;5.97;;;9.80;86.70;;;;;;4877942;29;20033;-91
2021/01/29 02:12:08;;;;;;;7.85;4.70;;;9.80;86.70;;;;;;4891470;29;20039;-91
2021/01/29 02:14:33;;;;;;;10.95;5.85;;;9.80;86.70;;;;;;4896541;29;20020;-91
2021/01/29 02:16:59;;;;;;;12.00;6.30;;;9.90;86.70;;;;;;4896228;29;20029;-91
2021/01/29 02:20:02;;;;;;;8.43;5.55;;;9.90;86.60;;;;;;4878211;29;20017;-90
2021/01/29 02:22:48;;;;;;;10.25;5.82;;;9.90;86.60;;;;;;4877327;29;20040;-91
2021/01/29 02:25:38;;;;;;;10.88;6.55;;;9.90;86.60;;;;;;4876737;29;20017;-91
2021/01/29 02:28:10;;;;;;;8.18;6.43;;;9.90;86.70;;;;;;4876752;29;20424;-90
2021/01/29 02:31:17;;;;;;;11.90;8.02;;;10.00;86.70;;;;;;4876789;29;20033;-90
2021/01/29 02:34:12;;;;;;;11.90;8.38;;;10.00;86.70;;;;;;4878987;29;20030;-91
2021/01/29 02:37:12;;;;;;;10.75;8.00;;;10.00;86.60;;;;;;4880113;29;20029;-91
2021/01/29 02:40:02;;;;;;;10.35;7.80;;;10.00;86.70;;;;;;4880065;29;20483;-90
2021/01/29 02:42:44;;;;;;;8.85;6.63;;;10.00;86.80;;;;;;4879816;29;20017;-90
2021/01/29 02:45:16;;;;;;;7.32;5.80;;;10.00;86.80;;;;;;4879766;29;20649;-92
2021/01/29 02:47:50;;;;;;;8.32;5.45;;;10.10;87.00;;;;;;4883154;29;20447;-90
2021/01/29 02:50:33;;;;;;;11.60;7.32;;;10.10;87.00;;;;;;4898733;29;20029;-91
2021/01/29 02:53:05;;;;;;;8.48;5.68;;;10.10;87.20;;;;;;4898966;29;20025;-90
2021/01/29 02:55:38;;;;;;;8.55;6.00;;;10.10;87.20;;;;;;4898686;29;20539;-91
2021/01/29 02:58:36;;;;;;;8.00;6.10;;;10.10;87.10;;;;;;4898400;29;20060;-91
2021/01/29 03:01:20;;;;;;;9.18;5.85;;;10.20;87.30;;;;;;4893390;29;20095;-90
2021/01/29 03:03:57;;;;;;;9.10;4.50;;;10.20;87.30;;;;;;4898431;29;20036;-91
2021/01/29 03:06:34;;;;;;;11.48;5.88;;;10.20;87.20;;;;;;4898295;29;20068;-90
2021/01/29 03:09:10;;;;;;;7.73;4.53;;;10.20;87.40;;;;;;4883225;29;20032;-90
2021/01/29 03:11:50;;;;;;;7.18;4.43;;;10.20;87.30;;;;;;4879210;29;20060;-91
2021/01/29 03:14:23;;;;;;;7.93;5.13;;;10.20;87.10;;;;;;4879284;29;20025;-90
2021/01/29 03:17:14;;;;;;;7.95;4.97;;;10.20;87.10;;;;;;4879379;29;20069;-90
2021/01/29 03:19:57;;;;;;;7.40;4.20;;;10.20;87.20;;;;;;4878146;29;20068;-90
2021/01/29 03:22:41;;;;;;;7.80;4.35;;;10.30;87.30;;;;;;4879053;29;20029;-91
2021/01/29 03:25:29;;;;;;;6.57;4.03;;;10.30;87.30;;;;;;4879133;29;20041;-90
2021/01/29 03:28:19;;;;;;;6.95;3.95;;;10.30;87.40;;;;;;4887862;29;20096;-90
2021/01/29 03:30:48;;;;;;;7.22;3.67;;;10.30;87.40;;;;;;4897016;29;20517;-89
2021/01/29 03:33:14;;;;;;;;;;;10.30;87.30;;;;;;4898022;29;20020;-90
2021/01/29 03:35:43;;;;;;;5.85;3.03;;;10.30;87.10;;;;;;4897834;29;19912;-91
2021/01/29 03:38:15;;;;;;;4.20;2.92;;;10.30;87.10;;;;;;4897856;29;20043;-89
2021/01/29 03:40:44;;;;;;;5.57;2.80;;;10.40;87.10;;;;;;4897551;29;20119;-90
2021/01/29 03:43:28;;;;;;;;;;;10.40;87.10;;;;;;4898463;29;20039;-91
2021/01/29 03:46:17;;;;;;;4.35;2.20;;;10.30;86.90;;;;;;4897064;29;19918;-91
2021/01/29 03:48:49;;;;;;;;;;;10.40;86.90;;;;;;4848704;29;20049;-90
2021/01/29 03:51:41;;;;;;;5.68;2.30;;;10.40;86.80;;;;;;4878949;29;20389;-91
2021/01/29 03:54:21;;;;;;;3.60;2.33;;;10.40;86.90;;;;;;4879308;29;20033;-91
2021/01/29 03:57:15;;;;;;;3.90;2.50;;;10.40;86.80;;;;;;4894391;29;20491;-91
2021/01/29 04:00:07;;;;;;;4.85;2.53;;;10.40;86.80;;;;;;4845415;29;20118;-90
2021/01/29 04:02:56;;;;;;;2.95;2.20;;;10.40;86.70;;;;;;4894059;29;20189;-90
2021/01/29 04:05:47;;;;;;;2.90;2.00;;;10.50;87.30;;;;;;4860106;29;20047;-90
2021/01/29 04:08:35;;;;;;;2.92;2.13;;;10.50;86.70;;;;;;4896932;29;20033;-90
2021/01/29 04:11:05;;;;;;;3.65;2.13;;;10.50;86.60;;;;;;4896860;29;20052;-89
2021/01/29 04:13:40;;;;;;;2.72;2.08;;;10.50;86.60;;;;;;4896523;29;20036;-89
2021/01/29 04:16:10;;;;;;;3.90;2.30;;;10.50;86.60;;;;;;4896980;29;20115;-90
2021/01/29 04:18:47;;;;;;;3.20;2.10;;;10.50;86.50;;;;;;4886196;29;20025;-90
2021/01/29 04:21:33;;;;;;;4.45;2.08;;;10.50;86.40;;;;;;4878236;29;20119;-90
2021/01/29 04:24:02;;;;;;;2.60;2.10;;;10.50;86.50;;;;;;4878158;29;20029;-90
2021/01/29 04:26:42;;;;;;;3.92;2.35;;;10.50;86.50;;;;;;4880737;29;20091;-91
2021/01/29 04:29:18;;;;;;;3.05;2.10;;;10.50;86.50;;;;;;4896732;29;20080;-90
2021/01/29 04:31:46;;;;;;;3.95;2.17;;;10.50;86.50;;;;;;4896602;29;20040;-90
2021/01/29 04:34:26;;;;;;;2.30;1.65;;;10.50;86.50;;;;;;4896537;29;20039;-90
2021/01/29 04:36:56;;;;;;;3.22;2.00;;;10.60;86.50;;;;;;4897120;29;20041;-90
2021/01/29 04:39:38;;;;;;;2.47;2.05;;;10.50;86.40;;;;;;4896486;29;20024;-91
2021/01/29 04:42:43;;;;;;;5.25;2.28;;;10.60;86.40;;;;;;4896548;29;20726;-90
2021/01/29 04:45:30;;;;;;;3.58;2.33;;;10.60;86.40;;;;;;4896810;29;20028;-90
2021/01/29 04:48:22;;;;;;;3.78;1.98;;;10.60;86.40;;;;;;4884983;29;20100;-90
2021/01/29 04:51:16;;;;;;;3.58;2.47;;;10.60;86.90;;;;;;4895992;29;20080;-91
2021/01/29 04:54:01;;;;;;;2.97;2.00;;;10.60;86.30;;;;;;4896155;29;20425;-90
2021/01/29 04:56:58;;;;;;;4.57;2.20;;;10.60;86.30;;;;;;4895989;29;20391;-90
2021/01/29 04:59:30;;;;;;;3.80;2.13;;;10.60;86.30;;;;;;4896077;29;20024;-91
2021/01/29 05:02:10;;;;;;;4.50;2.70;;;10.60;86.30;;;;;;4894872;29;20033;-90
2021/01/29 05:04:36;;;;;;;3.55;2.10;;;10.60;86.20;;;;;;4896024;29;20036;-90
2021/01/29 05:07:20;;;;;;;4.53;2.25;;;10.60;86.20;;;;;;4895863;29;20559;-91
2021/01/29 05:09:58;;;;;;;3.72;2.03;;;10.50;86.20;;;;;;4893002;29;20037;-91
2021/01/29 05:12:42;;;;;;;3.67;2.35;;;10.60;86.30;;;;;;4888568;29;20044;-90
2021/01/29 05:15:53;;;;;;;3.30;2.28;;;10.60;86.30;;;;;;4895573;29;20368;-90
2021/01/29 05:18:38;;;;;;;4.00;2.53;;;10.60;86.20;;;;;;4876642;29;20772;-90
2021/01/29 05:21:09;;;;;;;6.57;2.95;;;10.50;86.20;;;;;;4877684;29;20040;-90
2021/01/29 05:23:54;;;;;;;7.38;4.10;;;10.50;86.30;;;;;;4877853;29;20539;-91
2021/01/29 05:27:04;;;;;;;6.45;3.60;;;10.50;86.60;;;;;;4877891;29;20376;-91
2021/01/29 05:29:36;;;;;;;4.75;2.65;;;10.50;86.90;;;;;;4879823;29;20419;-91
2021/01/29 05:32:29;;;;;;;4.15;2.60;;;10.50;87.00;;;;;;4896153;29;20543;-90
2021/01/29 05:35:13;;;;;;;3.97;2.85;;;10.50;87.90;;;;;;4896747;29;20052;-91
2021/01/29 05:38:04;;;;;;;3.60;2.50;;;10.50;88.40;;;;;;4895534;29;20032;-90
2021/01/29 05:40:51;;;;;;;4.75;2.75;;;10.40;88.80;;;;;;4892514;29;20045;-91
2021/01/29 05:43:33;;;;;;;3.33;2.30;;;10.40;89.30;;;;;;4878352;29;20052;-89
2021/01/29 05:46:48;;;;;;;4.63;2.95;;;10.40;89.40;;;;;;4877663;29;20124;-90
2021/01/29 05:49:24;;;;;;;2.63;2.30;;;10.40;89.40;;;;;;4858603;29;20495;-90
2021/01/29 05:52:19;;;;;;;3.22;2.80;;;10.40;89.50;;;;;;4877340;29;20124;-89
2021/01/29 05:55:04;;;;;;;3.60;3.20;;;10.40;89.40;;;;;;4877262;29;20065;-89
2021/01/29 05:58:15;;;;;;;3.47;3.17;;;10.40;89.40;;;;;;4882522;29;20024;-90
2021/01/29 06:01:02;;;;;;;4.45;3.13;;;10.40;89.40;;;;;;4843253;29;20488;-89
2021/01/29 06:04:04;;;;;;;4.45;3.75;;;10.40;89.40;;;;;;4877688;29;20030;-89
2021/01/29 06:06:57;;;;;;;5.35;4.18;;;10.40;89.30;;;;;;4877761;29;20037;-89
2021/01/29 06:09:44;;;;;;;5.50;3.35;;;10.40;89.60;;;;;;4880877;29;20029;-90
2021/01/29 06:12:46;;;;;;;7.43;4.90;;;10.40;89.40;;;;;;4896535;29;20068;-90
2021/01/29 06:15:31;;;;;;;5.70;4.53;;;10.40;89.10;;;;;;4897179;29;20486;-90
2021/01/29 06:18:25;;;;;;;4.55;3.97;;;10.30;89.20;;;;;;4897930;29;20124;-89
2021/01/29 06:21:21;;;;;;;5.03;3.67;;;10.30;89.20;;;;;;4899781;29;20036;-89
2021/01/29 06:26:57;;;;;;;5.88;4.30;;;10.40;89.10;;;;;;4900245;29;20491;-92
2021/01/29 06:29:37;;;;;;;6.57;4.68;;;10.40;89.00;;;;;;4873698;29;20032;-90
2021/01/29 06:32:30;;;;;;;7.60;4.22;;;10.40;89.00;;;;;;4875779;29;20029;-92
2021/01/29 06:34:56;;;;;;;7.80;5.75;;;10.40;89.00;;;;;;4867332;29;20033;-93
2021/01/29 06:38:00;;;;;;;7.35;5.10;;;10.40;89.10;;;;;;4867513;29;20547;-92
2021/01/29 06:40:25;;;;;;;7.25;5.63;;;10.40;89.10;;;;;;4855557;29;20033;-94
2021/01/29 06:43:06;;;;;;;6.47;5.28;;;10.40;89.20;;;;;;4867087;29;20036;-92
2021/01/29 06:45:50;;;;;;;6.05;4.90;;;10.40;89.20;;;;;;4866939;29;20036;-93
2021/01/29 06:48:32;;;;;;;5.35;4.75;;;10.40;89.10;;;;;;4882848;29;20491;-93
2021/01/29 06:51:18;;;;;;;7.20;5.10;;;10.40;89.20;;;;;;4894785;29;20025;-91
2021/01/29 06:54:08;;;;;;;7.25;6.18;;;10.40;89.20;;;;;;4866318;29;20033;-93
2021/01/29 06:56:58;;;;;;;11.63;8.05;;;10.40;89.10;;;;;;4885138;29;20115;-93
2021/01/29 06:59:46;;;;;;;10.27;8.20;;;10.50;89.20;;;;;;4885839;29;20029;-94
2021/01/29 07:02:39;;;;;;;8.43;7.30;;;10.40;89.10;;;;;;4884098;29;20032;-91
2021/01/29 07:05:17;;;;;;;10.13;8.27;;;10.50;89.20;;;;;;4885886;29;20039;-91
2021/01/29 07:08:22;;;;;;;9.73;8.20;;;10.50;89.20;;;;;;4884683;29;20060;-91
2021/01/29 07:10:57;;;;;;;12.90;9.60;;;10.50;89.10;;;;;;4840163;29;20044;-94
2021/01/29 07:13:49;;;;;;;10.85;9.30;;;10.50;89.20;;;;;;4885626;29;20020;-92
2021/01/29 07:16:23;;;;;;;11.50;9.00;;;10.50;89.20;;;;;;4884563;29;20032;-92
2021/01/29 07:19:01;;;;;;;11.95;9.35;;;10.50;89.20;;;;;;4883664;29;20047;-94
2021/01/29 07:22:04;;;;;;;11.85;9.90;;;10.50;89.20;;;;;;4894910;29;20386;-93
2021/01/29 07:24:58;;;;;;;13.57;8.82;;;10.60;89.40;;;;;;4884083;29;20475;-93
2021/01/29 07:27:39;;;;;;;13.25;7.78;;;10.50;89.40;;;;;;4885267;29;20047;-92
2021/01/29 07:30:29;;;;;;;19.17;7.75;;;10.50;89.60;;;;;;4885414;29;20035;-93
2021/01/29 07:33:17;;;;;;;13.32;6.45;;;10.50;89.50;;;;;;4873751;29;20033;-93
2021/01/29 07:36:18;;;;;;;12.82;6.60;;;10.50;89.40;;;;;;4888575;29;20033;-93
2021/01/29 07:39:13;;;;;;;8.85;5.60;;;10.50;89.40;;;;;;4883360;29;20565;-90
2021/01/29 07:41:53;;;;;;;10.20;5.20;;;10.50;89.50;;;;;;4871786;29;20037;-90
2021/01/29 07:44:46;;;;;;;8.73;5.63;;;10.50;89.50;;;;;;4864887;29;20123;-92
2021/01/29 07:47:29;;;;;;;10.38;6.30;;;10.50;89.60;;;;;;4881349;29;20043;-94
2021/01/29 07:50:15;;;;;;;12.25;6.15;;;10.50;89.60;;;;;;4883885;29;20025;-90
2021/01/29 07:53:29;;;;;;;13.73;7.47;;;10.50;89.50;;;;;;4900351;29;20024;-91
2021/01/29 07:56:22;;;;;;;13.93;7.55;;;10.50;89.40;;;;;;4878952;29;20135;-94
2021/01/29 07:59:19;;;;;;;21.90;10.77;;;10.50;89.30;;;;;;4884687;29;20040;-93
2021/01/29 08:02:12;;;;;;;19.13;9.00;;;10.50;89.30;;;;;;4877246;29;20033;-92
2021/01/29 08:04:52;;;;;;;20.45;9.25;;;10.50;89.20;;;;;;4865212;29;20064;-93
2021/01/29 08:07:45;;;;;;;17.73;9.18;;;10.60;89.20;;;;;;4864991;29;20473;-92
2021/01/29 08:10:36;;;;;;;20.77;9.40;;;10.60;89.00;;;;;;4865234;29;20029;-89
2021/01/29 08:13:24;;;;;;;27.85;10.68;;;10.60;88.90;;;;;;4865336;29;20055;-93
2021/01/29 08:16:08;;;;;;;26.50;9.52;;;10.60;88.90;;;;;;4879238;29;20483;-91
2021/01/29 08:18:58;;;;;;;25.55;8.77;;;10.60;88.70;;;;;;4867998;29;20124;-92
2021/01/29 08:21:47;;;;;;;21.85;9.30;;;10.60;88.60;;;;;;4887886;29;20066;-92
2021/01/29 08:24:57;;;;;;;29.30;8.95;;;10.60;88.50;;;;;;4896141;29;20406;-91
2021/01/29 08:27:40;;;;;;;33.08;10.82;;;10.60;88.30;;;;;;4861386;29;20037;-91
2021/01/29 08:30:30;;;;;;;31.00;8.63;;;10.60;88.10;;;;;;4843120;29;20026;-92
2021/01/29 08:33:14;;;;;;;27.52;7.80;;;10.60;87.80;;;;;;4843505;29;20034;-89
2021/01/29 08:36:08;;;;;;;26.77;8.75;;;10.50;87.90;;;;;;4846166;29;20109;-91
2021/01/29 08:38:51;;;;;;;28.98;7.95;;;10.60;88.00;;;;;;4856546;29;20042;-91
2021/01/29 08:41:56;;;;;;;31.95;9.52;;;10.60;87.70;;;;;;4856045;29;20066;-90
2021/01/29 08:44:33;;;;;;;28.40;8.57;;;10.50;87.40;;;;;;4859086;29;20037;-91
2021/01/29 08:47:27;;;;;;;26.88;8.15;;;10.50;87.20;;;;;;4846861;29;20040;-92
2021/01/29 08:50:18;;;;;;;25.73;7.38;;;10.50;87.20;;;;;;4845409;29;20053;-92
2021/01/29 08:53:03;;;;;;;24.38;6.50;;;10.60;87.00;;;;;;4855712;29;20042;-90
2021/01/29 08:55:34;;;;;;;24.95;6.80;;;10.50;86.80;;;;;;4842899;29;20032;-90
2021/01/29 08:58:14;;;;;;;26.90;6.72;;;10.50;86.50;;;;;;4843270;29;20030;-92
2021/01/29 09:00:41;;;;;;;27.67;7.15;;;10.50;86.30;;;;;;4850950;29;20029;-91
2021/01/29 09:03:37;;;;;;;29.20;7.70;;;10.50;86.00;;;;;;4813545;29;20046;-91
2021/01/29 09:06:42;;;;;;;;;;;;;;;;;;;;;
2021/01/29 09:13:01;;;;;;;29.02;7.15;;;10.50;86.20;;;;;;4879211;29;20057;-88
2021/01/29 09:22:22;;;;;;;27.33;7.93;;;10.50;85.80;;;;;;4807534;29;20089;-89
2021/01/29 09:25:28;;;;;;;27.10;7.43;;;10.50;85.80;;;;;;4863291;29;20096;-90
2021/01/29 09:28:02;;;;;;;27.85;7.95;;;10.50;85.60;;;;;;4864985;29;20045;-91
2021/01/29 09:30:56;;;;;;;36.13;9.07;;;10.50;85.60;;;;;;4878943;29;20033;-90
2021/01/29 09:33:37;;;;;;;31.63;8.23;;;10.50;85.30;;;;;;4855337;29;20064;-90
2021/01/29 09:36:50;;;;;;;32.42;8.35;;;10.50;85.40;;;;;;4865061;29;20031;-93
2021/01/29 09:39:51;;;;;;;24.50;7.35;;;10.60;85.30;;;;;;4873767;29;20053;-90
2021/01/29 09:42:55;;;;;;;27.92;7.07;;;10.60;85.30;;;;;;4862342;29;20153;-90
2021/01/29 09:45:25;;;;;;;31.85;8.48;;;10.60;85.10;;;;;;4867907;29;20009;-91
2021/01/29 09:48:05;;;;;;;31.92;7.35;;;10.60;84.90;;;;;;4884604;29;20120;-91
2021/01/29 09:50:34;;;;;;;29.63;7.57;;;10.60;84.80;;;;;;4875108;29;20025;-91
2021/01/29 09:53:06;;;;;;;22.73;7.53;;;10.70;84.80;;;;;;4866816;29;20029;-90
2021/01/29 09:55:54;;;;;;;25.67;6.95;;;10.70;84.80;;;;;;4876736;29;20085;-91
2021/01/29 09:59:00;;;;;;;25.67;7.28;;;10.80;84.70;;;;;;4863429;29;20037;-90
2021/01/29 10:01:43;;;;;;;24.58;7.47;;;10.80;84.50;;;;;;4850146;29;20503;-91
2021/01/29 10:04:33;;;;;;;26.92;7.15;;;10.80;84.30;;;;;;4847555;29;20448;-91
2021/01/29 10:07:05;;;;;;;29.25;8.43;;;10.80;84.20;;;;;;4872082;29;20483;-91
2021/01/29 10:09:39;;;;;;;28.33;7.57;;;10.80;84.30;;;;;;4890126;29;20033;-91
2021/01/29 10:12:11;;;;;;;22.10;7.50;;;10.80;84.30;;;;;;4891970;29;20036;-90
2021/01/29 10:15:12;;;;;;;27.23;7.65;;;10.90;84.50;;;;;;4896230;29;20399;-90
2021/01/29 10:17:56;;;;;;;28.23;7.95;;;10.90;84.20;;;;;;4878185;29;20083;-89
2021/01/29 10:20:28;;;;;;;23.20;7.10;;;10.90;83.90;;;;;;4897935;29;20064;-90
2021/01/29 10:23:15;;;;;;;31.63;8.18;;;11.00;83.90;;;;;;4881376;29;20028;-89
2021/01/29 10:26:01;;;;;;;24.27;7.15;;;11.00;84.10;;;;;;4881092;29;20115;-90
2021/01/29 10:28:56;;;;;;;27.45;7.70;;;11.00;84.00;;;;;;4880993;29;20112;-90
2021/01/29 10:31:24;;;;;;;26.83;7.72;;;11.10;83.80;;;;;;4878578;29;20040;-89
2021/01/29 10:34:17;;;;;;;26.20;7.13;;;11.10;83.60;;;;;;4862460;29;20025;-90
2021/01/29 10:36:44;;;;;;;28.75;7.20;;;11.10;83.60;;;;;;4895807;29;20453;-90
2021/01/29 10:39:18;;;;;;;21.58;6.95;;;11.10;83.40;;;;;;4896550;29;20119;-91
2021/01/29 10:42:01;;;;;;;21.33;6.93;;;11.20;82.90;;;;;;4888180;29;20068;-91
2021/01/29 10:44:29;;;;;;;24.25;6.75;;;11.20;83.00;;;;;;4881470;29;20040;-89
2021/01/29 10:47:30;;;;;;;22.58;6.40;;;11.20;82.90;;;;;;4889515;29;20485;-93
2021/01/29 10:49:57;;;;;;;21.70;6.45;;;11.20;83.00;;;;;;4880919;29;20041;-90
2021/01/29 10:53:14;;;;;;;25.88;6.38;;;11.30;83.00;;;;;;4881587;29;20541;-90
2021/01/29 10:55:49;;;;;;;17.05;5.97;;;11.30;82.60;;;;;;4791992;29;20038;-90
2021/01/29 10:58:47;;;;;;;24.10;5.95;;;11.30;82.80;;;;;;4791891;29;20031;-89
2021/01/29 11:01:22;;;;;;;29.98;6.07;;;11.30;82.20;;;;;;4868676;29;20100;-90
2021/01/29 11:04:06;;;;;;;27.05;7.97;;;11.30;82.20;;;;;;4891408;29;20017;-89
2021/01/29 11:06:44;;;;;;;23.52;6.43;;;11.30;81.90;;;;;;4900638;29;20028;-92
2021/01/29 11:09:25;;;;;;;27.65;6.25;;;11.30;81.90;;;;;;4900203;29;20481;-90
2021/01/29 11:12:09;;;;;;;22.95;6.07;;;11.40;81.90;;;;;;4880238;29;20050;-90
2021/01/29 11:15:28;;;;;;;20.25;6.15;;;11.40;82.00;;;;;;4865944;29;20052;-89
2021/01/29 11:18:23;;;;;;;21.77;5.65;;;11.40;81.90;;;;;;4855452;29;20048;-91
2021/01/29 11:20:50;;;;;;;25.15;5.88;;;11.40;82.00;;;;;;4892535;29;20040;-93
2021/01/29 11:23:49;;;;;;;19.77;5.40;;;11.40;81.80;;;;;;4868798;29;20047;-91
2021/01/29 11:26:53;;;;;;;26.42;5.75;;;11.40;81.90;;;;;;4884617;29;20111;-90
2021/01/29 11:30:08;;;;;;;21.00;5.28;;;11.40;81.60;;;;;;4886069;29;20064;-91
2021/01/29 11:32:50;;;;;;;17.45;4.85;;;11.50;81.80;;;;;;4884927;29;20028;-94
2021/01/29 11:35:54;;;;;;;21.85;5.20;;;11.50;81.80;;;;;;4889547;29;20032;-93
2021/01/29 11:38:31;;;;;;;19.85;5.28;;;11.50;81.80;;;;;;4880822;29;20484;-94
2021/01/29 11:41:24;;;;;;;23.05;5.50;;;11.50;81.80;;;;;;4872233;29;20124;-93
2021/01/29 11:44:16;;;;;;;19.52;5.15;;;11.60;81.50;;;;;;4871219;29;20045;-94
2021/01/29 11:47:10;;;;;;;20.17;4.70;;;11.60;81.50;;;;;;4870210;29;20033;-93
2021/01/29 11:49:48;;;;;;;21.15;5.00;;;11.60;81.60;;;;;;4870031;29;20060;-94
2021/01/29 11:52:23;;;;;;;22.58;4.90;;;11.60;81.50;;;;;;4870259;29;20459;-94
2021/01/29 11:54:58;;;;;;;15.60;3.95;;;11.60;81.00;;;;;;4869720;29;20120;-93
2021/01/29 11:57:48;;;;;;;25.58;5.13;;;11.70;81.30;;;;;;4870120;29;20086;-93
2021/01/29 12:00:25;;;;;;;21.90;4.55;;;11.60;81.00;;;;;;4869673;29;20021;-94
2021/01/29 12:03:19;;;;;;;18.17;4.47;;;11.70;80.90;;;;;;4869736;29;20025;-94
2021/01/29 12:06:06;;;;;;;19.45;4.45;;;11.70;81.00;;;;;;4869128;29;20081;-94
2021/01/29 12:08:38;;;;;;;17.95;3.90;;;11.70;80.90;;;;;;4868205;29;20084;-94
2021/01/29 12:11:32;;;;;;;24.63;4.13;;;11.80;80.90;;;;;;4868374;29;20056;-93
2021/01/29 12:14:14;;;;;;;16.38;4.25;;;11.80;80.60;;;;;;4868408;29;20059;-94
2021/01/29 12:16:43;;;;;;;15.75;3.53;;;11.80;80.20;;;;;;4870436;29;20096;-94
2021/01/29 12:19:20;;;;;;;16.08;3.85;;;11.80;80.10;;;;;;4870957;29;20033;-94
2021/01/29 12:22:07;;;;;;;16.85;3.75;;;11.90;80.40;;;;;;4868687;29;20032;-94
2021/01/29 12:25:51;;;;;;;;;;;;;;;;;;;;;
2021/01/29 12:28:55;;;;;;;18.85;3.80;;;11.80;79.90;;;;;;4804712;29;20046;-89
2021/01/29 12:32:07;;;;;;;12.00;3.25;;;11.80;79.90;;;;;;4802233;29;20103;-89
2021/01/29 12:38:19;;;;;;;;;;;;;;;;;;;;;
2021/01/29 12:41:24;;;;;;;10.48;2.72;;;11.70;80.50;;;;;;4823543;29;20030;-89
2021/01/29 12:44:17;;;;;;;13.88;3.80;;;11.70;80.70;;;;;;4822847;29;20398;-90
2021/01/29 12:47:36;;;;;;;13.80;3.70;;;11.70;80.90;;;;;;4881588;29;20024;-89
2021/01/29 12:50:42;;;;;;;21.52;4.82;;;11.70;81.20;;;;;;4896656;29;20024;-90
2021/01/29 12:53:40;;;;;;;20.45;5.28;;;11.70;81.50;;;;;;4900687;29;20036;-90
2021/01/29 12:56:18;;;;;;;20.45;5.65;;;11.70;81.90;;;;;;4812569;29;20832;-90
2021/01/29 12:59:30;;;;;;;12.88;4.15;;;11.70;82.40;;;;;;4898277;29;20491;-89
2021/01/29 13:02:12;;;;;;;21.05;5.70;;;11.70;82.70;;;;;;4863941;29;20037;-88
2021/01/29 13:08:41;;;;;;;24.45;7.15;;;11.90;82.70;;;;;;4874364;29;20033;-89
2021/01/29 13:11:32;;;;;;;20.85;6.07;;;11.90;82.40;;;;;;4881281;29;20032;-89
2021/01/29 13:14:04;;;;;;;25.58;6.15;;;12.00;82.60;;;;;;4881312;29;20033;-89
2021/01/29 13:17:08;;;;;;;20.20;5.57;;;11.90;81.00;;;;;;4881054;29;20029;-90
2021/01/29 13:19:53;;;;;;;;;;;;;;;;;;;;;
2021/01/29 13:22:19;;;;;;;21.40;6.20;;;12.00;81.00;;;;;;4882857;29;20041;-90
2021/01/29 13:29:18;;;;;;;25.60;6.28;;;12.00;80.30;;;;;;4852778;29;20045;-90
2021/01/29 13:32:02;;;;;;;25.60;5.57;;;12.00;79.30;;;;;;4857107;29;20033;-88
2021/01/29 13:34:31;;;;;;;17.33;4.72;;;12.00;79.00;;;;;;4896361;29;20164;-90
2021/01/29 13:37:32;;;;;;;17.08;4.80;;;12.00;78.00;;;;;;4884745;29;20039;-86
2021/01/29 13:40:41;;;;;;;17.05;4.40;;;11.90;77.10;;;;;;4864091;29;20044;-89
2021/01/29 13:46:39;;;;;;;14.63;3.97;;;11.90;77.60;;;;;;4891858;29;19987;-89
2021/01/29 13:49:33;;;;;;;11.27;3.15;;;11.90;76.20;;;;;;4888455;29;20041;-92
2021/01/29 13:52:55;;;;;;;;;;;;;;;;;;;;;
2021/01/29 13:56:07;;;;;;;19.60;3.60;;;11.80;76.40;;;;;;4883128;29;20528;-91
2021/01/29 13:59:05;;;;;;;;;;;;;;;;;;;;;
2021/01/29 14:05:45;;;;;;;17.73;4.43;;;11.70;76.00;;;;;;4883872;29;20473;-89
2021/01/29 14:15:43;;;;;;;13.63;3.63;;;11.70;77.20;;;;;;4830990;29;20086;-89
2021/01/29 14:19:12;;;;;;;14.20;4.00;;;11.70;77.30;;;;;;4877562;29;20039;-90
2021/01/29 14:21:57;;;;;;;11.40;2.90;;;11.70;77.00;;;;;;4809480;29;20042;-90
2021/01/29 14:24:48;;;;;;;9.00;3.00;;;11.70;77.30;;;;;;4884655;29;20017;-90
2021/01/29 14:27:32;;;;;;;14.00;3.78;;;11.70;77.20;;;;;;4892266;29;20509;-89
2021/01/29 14:30:25;;;;;;;7.28;2.38;;;11.60;77.00;;;;;;4902369;29;20028;-91
2021/01/29 14:36:40;;;;;;;15.55;3.10;;;11.60;77.70;;;;;;4890173;29;20044;-89
2021/01/29 14:39:39;;;;;;;9.80;3.33;;;11.60;77.80;;;;;;4892566;29;20036;-90
2021/01/29 14:49:59;;;;;;;9.50;2.75;;;11.60;77.90;;;;;;4843632;29;20630;-89
2021/01/29 14:52:47;;;;;;;7.18;2.47;;;11.60;78.20;;;;;;4899344;29;20119;-89
2021/01/29 14:55:52;;;;;;;6.25;2.10;;;11.60;78.30;;;;;;4903744;29;20031;-89
2021/01/29 15:02:00;;;;;;;4.75;1.63;;;11.60;78.20;;;;;;4817046;29;20046;-91
2021/01/29 15:04:32;;;;;;;9.43;2.88;;;11.60;78.40;;;;;;4863418;29;20039;-92
2021/01/29 15:10:20;;;;;;;6.22;1.92;;;11.50;78.40;;;;;;4902820;29;20032;-88
2021/01/29 15:12:49;;;;;;;8.93;2.65;;;11.50;78.40;;;;;;4894554;29;20087;-88